航空気象通報

ウインドサーファーのための航空気象通報による風予報です。

1/12-1/14の航空気象通報

2019年01月12日 21時48分57秒 | お天気
羽田空港
 1212/1318 01012KT 8000 FEW008 BKN015
日本時間12日21時-14日03時:010度から12ノットの風
晴れ

静岡空港
TAF RJNS 121105Z 1212/1318 34004KT 9999 FEW015 BKN025 
  TEMPO 1215/1218 FEW005 BKN008 
  BECMG 1303/1306 14005KT 
  BECMG 1309/1312 36004KT
日本時間12日21時-13日12時:340度から4ノットの風
12-15時:風が変化
15-18時:140度から5ノットの風
18-21時:風が変化
21時-14日03時:360度から4ノットの風
曇り

福岡空港
TAF RJFF 121111Z 1212/1318 31005KT 9000 -SHRA FEW010 SCT015 BKN020 
  BECMG 1216/1218 15004KT 
  TEMPO 1217/1221 4000 -SHRA BR 
  BECMG 1300/1303 33006KT 
  BECMG 1309/1312 14004KT
日本時間12日21時-13日01時:310度から5ノットの風
01-03時:風が変化
03-09時:150度から4ノットの風
09-12時:風が変化
12-18時:330度から6ノットの風
晴れ
但し、13日02-06時の間:時々雨

那覇空港
TAF ROAH 121105Z 1212/1318 36014KT 9999 FEW025 BKN045
日本時間12日21時-14日03時:360度から14ノットの風
曇り

石垣空港
 1212/1318 03012KT 9999 FEW015 BKN030
日本時間12日21時-14日03時:030度から12ノットの風
晴れ

マウイのカフルイ空港
PHOG 121125Z 1212/1312 15004KT P6SM FEW035 SCT050 
  FM122100 06011G18KT P6SM SCT035 SCT050 
  FM130400 08007KT P6SM FEW035 SCT050
ハワイ時間12日02-11時:150度から4ノットの風
11-18時:060度から11ノット、突風18ノット
18時-13日02時:080度から7ノットの風
晴れ

サイパン空港
PGSN 121140Z 1212/1312 04013KT P6SM VCSH FEW022 SCT035 
  FM121500 04013KT P6SM FEW025 
  FM122200 04015G25KT P6SM SCT025
マリアナ時間12日22時-13日02時:040度から13ノットの風
02-08時:040度から13ノットの風
08-22時:040度から15ノット、突風25ノット
晴れ

番外編 伊丹空港
TAF RJOO 121107Z 1212/1318 32004KT 9999 FEW025
日本時間12日21時-14日03時:320度から4ノットの風
晴れ
ジャンル:
ウェブログ
コメント   この記事についてブログを書く
« 1/11-1/13の航空気象通報 | トップ | 1/13-1/15の航空気象通報 »
最近の画像もっと見る

コメントを投稿

ブログ作成者から承認されるまでコメントは反映されません。

お天気」カテゴリの最新記事